Aviation Digital Data Service (ADDS)

Output produced by METARs form (2152 UTC 24 March 2019)
found at http://www.aviationweather.gov/metar/data/
 
LOWG 242120Z 29002KT CAVOK 10/04 Q1017 NOSIG
TAF LOWG 241715Z 2418/2518 VRB02KT CAVOK TX16/2418Z TN04/2505Z 
     BECMG 2504/2507 34005KT 9999 SCT050 BKN090 
     PROB40 
     TEMPO 2509/2515 SHRA FEW045TCU BKN050 
     TEMPO 2515/2518 35010G20KT
       
LOWI 242120Z VRB02KT 9999 FEW090 09/01 Q1020 NOSIG
TAF LOWI 241715Z 2418/2518 VRB02KT CAVOK TX15/2418Z TN06/2518Z 
     BECMG 2419/2421 27006KT 9999 SCT050 BKN070 
     TEMPO 2503/2518 27015G25KT SHRA SCT010 BKN020
       
LOWK 242120Z AUTO 31003KT 240V360 9999 FEW100 09/05 Q1017 NOSIG
TAF LOWK 241715Z 2418/2518 VRB02KT CAVOK TX16/2418Z TN04/2505Z 
     BECMG 2503/2506 9999 FEW060 SCT080 
     TEMPO 2511/2518 -SHRA FEW050TCU BKN060 
     TEMPO 2515/2518 34010G20KT
       
LOWL 242120Z AUTO VRB02KT 8000 BKN050 10/06 Q1019 NOSIG
TAF LOWL 241715Z 2418/2518 28010KT CAVOK TX15/2418Z TN05/2518Z 
     BECMG 2418/2420 9999 BKN050 
     TEMPO 2423/2518 28015G25KT -SHRA BKN020 
     TEMPO 2510/2516 30024G36KT SCT040
       
LOWS 242120Z 29006KT 250V320 9999 SCT050 BKN100 10/05 Q1021 NOSIG
TAF AMD LOWS 241822Z 2418/2518 34006KT CAVOK TX14/2418Z TN05/2518Z 
     BECMG 2420/2423 9999 SCT040 BKN060 
     TEMPO 2500/2518 31015G25KT SHRA FEW010 BKN035 
     PROB40 
     TEMPO 2512/2518 31020G30KT
       
LOWW 242120Z 33010KT 9999 SCT050 12/07 Q1018 NOSIG
TAF LOWW 242015Z 2421/2603 32010KT 9999 FEW030 SCT050 TX12/2421Z TN04/2603Z 
     TEMPO 2421/2505 29015KT SCT020 BKN040 
     TEMPO 2505/2510 32015KT 
     TEMPO 2510/2518 29022G35KT -SHRA FEW045TCU 
     TEMPO 2518/2603 32015KT
       
LOAV 241700Z VRB02KT 10KM SCT100AC BKN300CI 17/05
TAF LOAV 241125Z 2412/2421 06006KT 9999 FEW050
       
LOAN 241700Z VRB02KT 12KM FEW100AC
TAF AMD LOAN 241205Z 2412/2421 05006KT 9999 FEW050 
     TEMPO 2412/2418 09010KT
       
LOXZ 242050Z VRB02KT 30KM FEW350CI 06/01 Q1018
TAF LOXZ 241415Z 2415/2424 22006KT 9999 SCT370